createdAt,value
2023-04-29T00:00:20.006Z,8.03
2023-04-29T00:01:16.983Z,7.44
2023-04-29T00:02:14.217Z,8.37
2023-04-29T00:03:11.514Z,8.23
2023-04-29T00:04:09.369Z,7.62
2023-04-29T00:05:06.996Z,8.31
2023-04-29T00:06:04.437Z,8.13
2023-04-29T00:07:01.373Z,8.59
2023-04-29T00:07:58.591Z,7.69
2023-04-29T00:08:55.380Z,8.46
2023-04-29T00:09:53.209Z,7.88
2023-04-29T00:10:50.378Z,8.32
2023-04-29T00:11:48.012Z,8.09
2023-04-29T00:12:44.886Z,7.39
2023-04-29T00:13:41.623Z,8.25
2023-04-29T00:14:38.705Z,8.23
2023-04-29T00:15:37.416Z,6.91
2023-04-29T00:16:34.419Z,7.05
2023-04-29T00:17:31.288Z,8.04
2023-04-29T00:18:28.089Z,8.23
2023-04-29T00:19:25.232Z,8.97
2023-04-29T00:20:22.155Z,8.20
2023-04-29T00:21:18.924Z,7.75
2023-04-29T00:22:15.741Z,8.86
2023-04-29T00:23:12.495Z,9.25
2023-04-29T00:24:09.205Z,8.77
2023-04-29T00:25:06.665Z,5.68
2023-04-29T00:26:03.713Z,8.94
2023-04-29T00:27:02.604Z,9.00
2023-04-29T00:28:02.153Z,8.37
2023-04-29T00:28:59.004Z,7.44
2023-04-29T00:29:55.846Z,6.76
2023-04-29T00:30:53.456Z,8.93
2023-04-29T00:31:50.329Z,7.91
2023-04-29T00:32:47.481Z,8.02
2023-04-29T00:33:45.088Z,7.38
2023-04-29T00:34:42.683Z,7.21
2023-04-29T00:35:39.567Z,7.18
2023-04-29T00:36:36.393Z,7.91
2023-04-29T00:37:33.334Z,8.35
2023-04-29T00:38:30.108Z,7.59
2023-04-29T00:39:26.894Z,7.82
2023-04-29T00:40:23.658Z,6.56
2023-04-29T00:41:21.290Z,7.60
2023-04-29T00:42:18.659Z,7.02
2023-04-29T00:43:15.645Z,8.11
2023-04-29T00:44:12.552Z,7.77
2023-04-29T00:45:11.610Z,6.98
2023-04-29T00:46:09.669Z,6.42
2023-04-29T00:47:11.418Z,7.57
2023-04-29T00:48:08.259Z,7.60
2023-04-29T00:49:05.703Z,8.03
2023-04-29T00:50:02.727Z,7.49
2023-04-29T00:50:59.702Z,8.39
2023-04-29T00:51:59.283Z,8.47
2023-04-29T00:52:56.019Z,8.37
2023-04-29T00:53:53.651Z,7.94
2023-04-29T00:54:52.086Z,8.33
2023-04-29T00:55:51.711Z,7.35
2023-04-29T00:56:50.579Z,7.74
2023-04-29T00:57:52.545Z,7.60
2023-04-29T00:58:52.931Z,8.12
2023-04-29T00:59:50.901Z,7.64
2023-04-29T01:00:48.309Z,6.03
2023-04-29T01:01:45.512Z,8.17
2023-04-29T01:02:42.518Z,8.18
2023-04-29T01:03:39.913Z,7.17
2023-04-29T01:04:36.985Z,5.86
2023-04-29T01:05:33.943Z,7.01
2023-04-29T01:06:30.874Z,7.61
2023-04-29T01:07:34.859Z,8.17
2023-04-29T01:08:44.383Z,7.88
2023-04-29T01:09:56.300Z,7.50
2023-04-29T01:11:11.727Z,6.99
2023-04-29T01:12:38.817Z,7.18
2023-04-29T01:13:46.284Z,5.91
2023-04-29T01:14:54.337Z,7.05
2023-04-29T01:16:03.833Z,6.98
2023-04-29T01:17:10.216Z,6.19
2023-04-29T01:18:19.499Z,6.62
2023-04-29T01:19:22.267Z,6.99
2023-04-29T01:20:20.941Z,5.23
2023-04-29T01:21:19.189Z,6.75
2023-04-29T01:22:18.491Z,5.42
2023-04-29T01:23:15.209Z,6.55
2023-04-29T01:24:11.938Z,5.93
2023-04-29T01:25:10.019Z,6.13
2023-04-29T01:26:08.306Z,6.37
2023-04-29T01:27:23.658Z,7.21
2023-04-29T01:28:23.472Z,7.06
2023-04-29T01:29:52.019Z,6.05
2023-04-29T01:31:06.807Z,6.94
2023-04-29T01:32:13.829Z,6.89
2023-04-29T01:33:16.524Z,6.95
2023-04-29T01:34:45.000Z,6.49
2023-04-29T01:35:59.119Z,6.84
2023-04-29T01:37:19.565Z,6.39
2023-04-29T01:39:00.793Z,7.43
2023-04-29T01:40:26.463Z,7.45
2023-04-29T01:41:36.834Z,7.59
2023-04-29T01:42:44.428Z,7.88
2023-04-29T01:43:43.097Z,7.75
2023-04-29T01:44:42.586Z,6.90
2023-04-29T01:45:44.142Z,7.96
2023-04-29T01:46:43.307Z,6.96
2023-04-29T01:47:42.014Z,7.28
2023-04-29T01:48:39.544Z,6.36
2023-04-29T01:49:37.551Z,6.30
2023-04-29T01:50:34.346Z,7.31
2023-04-29T01:51:31.481Z,4.75
2023-04-29T01:52:28.811Z,6.95
2023-04-29T01:53:25.548Z,6.87
2023-04-29T01:54:25.299Z,4.73
2023-04-29T01:55:22.554Z,6.74
2023-04-29T01:56:22.208Z,6.64
2023-04-29T01:57:19.508Z,6.05
2023-04-29T01:58:16.269Z,7.25
2023-04-29T01:59:13.002Z,7.25
2023-04-29T02:00:10.357Z,4.59
2023-04-29T02:01:07.191Z,7.21
2023-04-29T02:02:04.002Z,6.57
2023-04-29T02:03:00.939Z,5.62
2023-04-29T02:03:57.886Z,5.96
2023-04-29T02:04:55.228Z,5.42
2023-04-29T02:05:52.216Z,5.95
2023-04-29T02:06:48.991Z,7.01
2023-04-29T02:07:45.879Z,6.37
2023-04-29T02:08:42.738Z,5.83
2023-04-29T02:09:39.506Z,6.56
2023-04-29T02:10:36.268Z,5.93
2023-04-29T02:11:33.079Z,6.49
2023-04-29T02:12:29.900Z,6.81
2023-04-29T02:13:27.241Z,6.71
2023-04-29T02:14:23.973Z,6.75
2023-04-29T02:15:21.306Z,7.05
2023-04-29T02:16:18.367Z,7.09
2023-04-29T02:17:15.191Z,4.87
2023-04-29T02:18:11.959Z,7.12
2023-04-29T02:19:08.708Z,6.35
2023-04-29T02:20:05.988Z,6.92
2023-04-29T02:21:03.304Z,6.97
2023-04-29T02:22:00.129Z,5.27
2023-04-29T02:22:56.876Z,5.80
2023-04-29T02:23:54.519Z,6.36
2023-04-29T02:24:52.126Z,6.59
2023-04-29T02:25:49.397Z,5.72
2023-04-29T02:26:46.182Z,4.66
2023-04-29T02:27:42.972Z,6.64
2023-04-29T02:28:39.884Z,5.93
2023-04-29T02:29:37.152Z,5.54
2023-04-29T02:30:34.010Z,6.07
2023-04-29T02:31:30.885Z,6.24
2023-04-29T02:32:27.692Z,4.41
2023-04-29T02:33:24.599Z,6.88
2023-04-29T02:34:21.417Z,6.56
2023-04-29T02:35:18.119Z,6.91
2023-04-29T02:36:14.955Z,6.73
2023-04-29T02:37:11.761Z,6.29
2023-04-29T02:38:08.554Z,7.26
2023-04-29T02:39:05.301Z,4.63
2023-04-29T02:40:03.880Z,6.03
2023-04-29T02:41:00.589Z,7.00
2023-04-29T02:41:57.326Z,7.37
2023-04-29T02:42:54.049Z,4.66
2023-04-29T02:43:50.761Z,7.23
2023-04-29T02:44:47.551Z,6.22
2023-04-29T02:45:44.811Z,7.20
2023-04-29T02:46:45.390Z,7.33
2023-04-29T02:47:42.281Z,6.31
2023-04-29T02:48:39.274Z,7.42
2023-04-29T02:49:36.154Z,5.77
2023-04-29T02:50:33.397Z,6.27
2023-04-29T02:51:30.900Z,7.26
2023-04-29T02:52:28.205Z,5.15
2023-04-29T02:53:44.231Z,7.41
2023-04-29T02:54:40.981Z,6.49
2023-04-29T02:55:38.068Z,5.28
2023-04-29T02:56:34.859Z,6.30
2023-04-29T02:57:32.284Z,5.42
2023-04-29T02:58:29.035Z,6.31
2023-04-29T02:59:25.756Z,6.23
2023-04-29T03:00:22.664Z,5.41
2023-04-29T03:01:19.574Z,6.63
2023-04-29T03:02:16.401Z,6.86
2023-04-29T03:03:13.594Z,6.04
2023-04-29T03:04:10.827Z,4.21
2023-04-29T03:05:08.135Z,6.10
2023-04-29T03:06:04.898Z,6.24
2023-04-29T03:07:01.738Z,6.27
2023-04-29T03:07:58.582Z,5.91
2023-04-29T03:08:55.313Z,5.49
2023-04-29T03:09:52.503Z,6.17
2023-04-29T03:10:49.548Z,5.57
2023-04-29T03:11:46.318Z,5.10
2023-04-29T03:12:43.110Z,4.34
2023-04-29T03:13:39.873Z,5.14
2023-04-29T03:14:36.708Z,6.02
2023-04-29T03:15:33.458Z,5.83
2023-04-29T03:16:31.418Z,5.90
2023-04-29T03:17:28.237Z,4.96
2023-04-29T03:18:25.238Z,5.49
2023-04-29T03:19:22.335Z,6.20
2023-04-29T03:20:19.578Z,6.17
2023-04-29T03:21:16.367Z,6.30
2023-04-29T03:22:13.141Z,6.11
2023-04-29T03:23:09.888Z,6.29
2023-04-29T03:24:06.799Z,6.10
2023-04-29T03:25:04.165Z,5.97
2023-04-29T03:26:01.427Z,4.22
2023-04-29T03:27:00.146Z,4.45
2023-04-29T03:27:57.304Z,5.14
2023-04-29T03:28:54.130Z,5.73
2023-04-29T03:29:51.154Z,5.67
2023-04-29T03:30:48.356Z,6.07
2023-04-29T03:31:45.311Z,6.19
2023-04-29T03:32:42.317Z,5.38
2023-04-29T03:33:39.128Z,5.56
2023-04-29T03:34:36.080Z,6.45
2023-04-29T03:35:32.942Z,6.40
2023-04-29T03:36:29.776Z,6.55
2023-04-29T03:37:26.570Z,6.56
2023-04-29T03:38:23.424Z,6.97
2023-04-29T03:39:20.414Z,7.01
2023-04-29T03:40:17.149Z,6.66
2023-04-29T03:41:13.978Z,6.11
2023-04-29T03:42:13.266Z,6.23
2023-04-29T03:43:10.385Z,6.53
2023-04-29T03:44:07.238Z,6.02
2023-04-29T03:45:04.320Z,7.01
2023-04-29T03:46:01.107Z,5.74
2023-04-29T03:46:57.949Z,7.17
2023-04-29T03:47:55.009Z,5.99
2023-04-29T03:48:52.446Z,6.78
2023-04-29T03:49:49.345Z,6.87
2023-04-29T03:50:46.367Z,6.83
2023-04-29T03:51:45.438Z,6.74
2023-04-29T03:52:42.344Z,6.19
2023-04-29T03:53:39.760Z,6.73
2023-04-29T03:54:36.510Z,6.73
2023-04-29T03:55:33.263Z,5.54
2023-04-29T03:56:30.009Z,4.99
2023-04-29T03:57:26.794Z,6.96
2023-04-29T03:58:23.834Z,7.39
2023-04-29T03:59:20.734Z,6.15
2023-04-29T04:00:17.668Z,5.25
2023-04-29T04:01:15.375Z,7.43
2023-04-29T04:02:12.300Z,7.09
2023-04-29T04:03:09.419Z,7.24
2023-04-29T04:04:06.453Z,7.00
2023-04-29T04:05:03.642Z,6.89
2023-04-29T04:06:00.400Z,6.76
2023-04-29T04:06:57.956Z,6.08
2023-04-29T04:07:55.255Z,5.76
2023-04-29T04:08:52.105Z,6.19
2023-04-29T04:09:49.235Z,6.88
2023-04-29T04:10:46.024Z,6.78
2023-04-29T04:11:42.697Z,7.02
2023-04-29T04:12:39.429Z,6.90
2023-04-29T04:13:36.994Z,6.45
2023-04-29T04:14:34.568Z,6.45
2023-04-29T04:15:31.306Z,6.76
2023-04-29T04:16:28.260Z,6.11
2023-04-29T04:17:25.153Z,6.50
2023-04-29T04:18:21.899Z,7.04
2023-04-29T04:19:18.658Z,5.59
2023-04-29T04:20:16.070Z,6.19
2023-04-29T04:21:13.552Z,7.12
2023-04-29T04:22:12.972Z,6.77
2023-04-29T04:23:09.803Z,7.09
2023-04-29T04:24:07.096Z,7.07
2023-04-29T04:25:04.662Z,6.89
2023-04-29T04:26:01.756Z,7.77
2023-04-29T04:26:58.564Z,5.79
2023-04-29T04:27:55.317Z,8.33
2023-04-29T04:28:52.379Z,8.20
2023-04-29T04:29:53.496Z,8.38
2023-04-29T04:30:50.944Z,7.55
2023-04-29T04:31:47.808Z,8.11
2023-04-29T04:32:44.803Z,5.39
2023-04-29T04:33:41.904Z,6.92
2023-04-29T04:34:41.399Z,7.36
2023-04-29T04:35:38.158Z,7.73
2023-04-29T04:36:34.909Z,7.61
2023-04-29T04:37:31.667Z,7.68
2023-04-29T04:38:28.467Z,7.50
2023-04-29T04:39:25.188Z,7.35
2023-04-29T04:40:21.900Z,7.49
2023-04-29T04:41:18.635Z,6.69
2023-04-29T04:42:15.405Z,7.95
2023-04-29T04:43:12.272Z,7.87
2023-04-29T04:44:09.185Z,7.81
2023-04-29T04:45:06.640Z,6.96
2023-04-29T04:46:16.901Z,7.23
2023-04-29T04:47:13.952Z,7.54
2023-04-29T04:48:10.937Z,6.00
2023-04-29T04:49:07.804Z,7.72
2023-04-29T04:50:05.012Z,7.36
2023-04-29T04:51:09.026Z,7.63
2023-04-29T04:52:05.958Z,7.97
2023-04-29T04:53:03.735Z,7.49
2023-04-29T04:54:00.589Z,7.90
2023-04-29T04:54:57.369Z,8.32
2023-04-29T04:55:54.120Z,7.09
2023-04-29T04:56:52.370Z,7.75
2023-04-29T04:57:49.210Z,7.12
2023-04-29T04:58:46.025Z,8.27
2023-04-29T04:59:43.431Z,8.23
2023-04-29T05:00:44.533Z,5.18
2023-04-29T05:01:41.489Z,7.97
2023-04-29T05:02:38.499Z,7.40
2023-04-29T05:03:35.579Z,8.40
2023-04-29T05:04:32.530Z,8.06
2023-04-29T05:05:29.342Z,7.70
2023-04-29T05:06:26.624Z,7.69
2023-04-29T05:07:23.499Z,7.00
2023-04-29T05:08:20.507Z,8.03
2023-04-29T05:09:17.395Z,7.07
2023-04-29T05:10:14.130Z,8.60
2023-04-29T05:11:18.379Z,7.78
2023-04-29T05:12:15.847Z,8.57
2023-04-29T05:13:12.705Z,8.41
2023-04-29T05:14:09.596Z,8.01
2023-04-29T05:15:06.869Z,8.69
2023-04-29T05:16:06.528Z,8.73
2023-04-29T05:17:03.665Z,6.37
2023-04-29T05:18:00.786Z,7.80
2023-04-29T05:18:57.564Z,8.90
2023-04-29T05:19:54.590Z,8.70
2023-04-29T05:20:51.443Z,8.61
2023-04-29T05:21:48.260Z,8.63
2023-04-29T05:22:45.051Z,8.81
2023-04-29T05:23:42.074Z,8.16
2023-04-29T05:24:38.813Z,8.69
2023-04-29T05:25:35.895Z,9.49
2023-04-29T05:26:32.648Z,9.35
2023-04-29T05:27:30.184Z,9.91
2023-04-29T05:28:28.194Z,9.34
2023-04-29T05:29:27.212Z,9.37
2023-04-29T05:30:23.962Z,9.09
2023-04-29T05:31:21.557Z,8.70
2023-04-29T05:32:18.356Z,9.58
2023-04-29T05:33:15.091Z,8.40
2023-04-29T05:34:11.828Z,8.72
2023-04-29T05:35:09.724Z,9.35
2023-04-29T05:36:06.962Z,8.97
2023-04-29T05:37:03.695Z,8.31
2023-04-29T05:38:00.419Z,8.65
2023-04-29T05:38:57.288Z,8.73
2023-04-29T05:39:54.218Z,7.93
2023-04-29T05:40:53.138Z,8.39
2023-04-29T05:41:49.929Z,8.79
2023-04-29T05:42:47.125Z,7.85
2023-04-29T05:43:43.988Z,9.35
2023-04-29T05:44:41.101Z,8.45
2023-04-29T05:45:37.843Z,8.67
2023-04-29T05:46:34.702Z,8.86
2023-04-29T05:47:31.625Z,8.09
2023-04-29T05:48:29.946Z,8.00
2023-04-29T05:49:26.718Z,9.12
2023-04-29T05:50:23.650Z,8.59
2023-04-29T05:51:20.475Z,6.96
2023-04-29T05:52:17.263Z,8.82
2023-04-29T05:53:19.607Z,9.24
2023-04-29T05:54:16.672Z,9.19
2023-04-29T05:55:13.604Z,9.19
2023-04-29T05:56:12.974Z,8.98
2023-04-29T05:57:24.597Z,9.06
2023-04-29T05:58:21.448Z,8.90
2023-04-29T05:59:21.262Z,7.69
2023-04-29T06:00:18.099Z,8.81
2023-04-29T06:01:14.928Z,8.91
2023-04-29T06:02:12.432Z,8.96
2023-04-29T06:03:11.374Z,9.19
2023-04-29T06:04:08.592Z,7.70
2023-04-29T06:05:06.181Z,8.39
2023-04-29T06:06:03.804Z,9.70
2023-04-29T06:07:00.952Z,9.17
2023-04-29T06:07:58.185Z,9.84
2023-04-29T06:08:55.004Z,9.50
2023-04-29T06:09:52.000Z,9.59
2023-04-29T06:10:54.814Z,7.84
2023-04-29T06:11:58.031Z,9.08
2023-04-29T06:12:54.914Z,6.86
2023-04-29T06:13:51.642Z,8.87
2023-04-29T06:14:48.551Z,9.48
2023-04-29T06:15:45.612Z,10.51
2023-04-29T06:16:42.644Z,9.76
2023-04-29T06:17:39.472Z,9.69
2023-04-29T06:18:36.228Z,10.25
2023-04-29T06:19:34.085Z,9.63
2023-04-29T06:20:30.956Z,10.53
2023-04-29T06:21:31.583Z,10.60
2023-04-29T06:22:28.344Z,10.71
2023-04-29T06:23:25.214Z,10.22
2023-04-29T06:24:22.120Z,10.63
2023-04-29T06:25:18.988Z,10.59
2023-04-29T06:26:15.816Z,10.85
2023-04-29T06:27:12.577Z,9.97
2023-04-29T06:28:09.405Z,11.02
2023-04-29T06:29:06.269Z,10.25
2023-04-29T06:30:03.234Z,10.82
2023-04-29T06:31:00.166Z,10.54
2023-04-29T06:31:56.979Z,10.99
2023-04-29T06:32:53.776Z,11.23
2023-04-29T06:33:51.294Z,11.19
2023-04-29T06:34:48.112Z,10.65
2023-04-29T06:35:44.951Z,10.35
2023-04-29T06:36:41.765Z,10.33
2023-04-29T06:37:38.538Z,10.34
2023-04-29T06:38:35.421Z,11.04
2023-04-29T06:39:32.399Z,11.05
2023-04-29T06:40:29.177Z,10.39
2023-04-29T06:41:27.320Z,10.31
2023-04-29T06:42:24.091Z,10.55
2023-04-29T06:43:21.096Z,10.66
2023-04-29T06:44:19.285Z,10.05
2023-04-29T06:45:16.155Z,10.85
2023-04-29T06:46:13.234Z,11.60
2023-04-29T06:47:10.249Z,11.64
2023-04-29T06:48:07.343Z,11.70
2023-04-29T06:49:04.251Z,11.96
2023-04-29T06:50:01.348Z,11.56
2023-04-29T06:50:58.889Z,11.91
2023-04-29T06:51:55.715Z,11.61
2023-04-29T06:52:52.704Z,10.92
2023-04-29T06:53:49.506Z,10.59
2023-04-29T06:54:46.424Z,10.07
2023-04-29T06:55:43.207Z,11.97
2023-04-29T06:56:39.977Z,11.46
2023-04-29T06:57:37.013Z,10.58
2023-04-29T06:58:33.837Z,12.28
2023-04-29T06:59:30.687Z,11.89
2023-04-29T07:00:27.567Z,12.96
2023-04-29T07:01:24.521Z,12.33
2023-04-29T07:02:21.441Z,11.89
2023-04-29T07:03:19.047Z,10.96
2023-04-29T07:04:15.976Z,11.48
2023-04-29T07:05:12.904Z,11.20
2023-04-29T07:06:09.706Z,10.99
2023-04-29T07:07:06.988Z,11.84
2023-04-29T07:08:03.751Z,11.60
2023-04-29T07:09:00.604Z,11.81
2023-04-29T07:09:57.390Z,12.11
2023-04-29T07:10:57.751Z,12.34
2023-04-29T07:11:55.023Z,12.05
2023-04-29T07:12:51.962Z,9.42
2023-04-29T07:13:48.818Z,10.16
2023-04-29T07:14:45.715Z,11.37
2023-04-29T07:15:42.463Z,12.29
2023-04-29T07:16:39.238Z,12.00
2023-04-29T07:17:36.161Z,12.74
2023-04-29T07:18:33.089Z,12.56
2023-04-29T07:19:31.101Z,12.65
2023-04-29T07:20:27.820Z,11.73
2023-04-29T07:21:24.560Z,12.43
2023-04-29T07:22:21.315Z,10.98
2023-04-29T07:23:18.036Z,10.91
2023-04-29T07:24:14.826Z,12.55
2023-04-29T07:25:11.959Z,11.89
2023-04-29T07:26:16.771Z,12.58
2023-04-29T07:27:13.518Z,13.29
2023-04-29T07:28:10.556Z,12.97
2023-04-29T07:29:07.283Z,13.86
2023-04-29T07:30:06.072Z,13.06
2023-04-29T07:31:03.035Z,12.38
2023-04-29T07:31:59.992Z,13.66
2023-04-29T07:32:56.958Z,13.40
2023-04-29T07:33:53.719Z,13.42
2023-04-29T07:34:50.553Z,13.79
2023-04-29T07:35:47.412Z,14.39
2023-04-29T07:36:44.205Z,14.59
2023-04-29T07:37:43.804Z,13.12
2023-04-29T07:38:40.837Z,14.07
2023-04-29T07:39:37.742Z,14.22
2023-04-29T07:40:34.566Z,14.07
2023-04-29T07:41:31.461Z,14.16
2023-04-29T07:42:28.148Z,14.43
2023-04-29T07:43:24.901Z,13.52
2023-04-29T07:44:22.521Z,14.72
2023-04-29T07:45:19.331Z,14.59
2023-04-29T07:46:18.310Z,14.64
2023-04-29T07:47:15.136Z,14.57
2023-04-29T07:48:11.890Z,12.52
2023-04-29T07:49:08.754Z,13.34
2023-04-29T07:50:06.060Z,13.59
2023-04-29T07:51:03.813Z,12.59
2023-04-29T07:52:00.727Z,14.29
2023-04-29T07:52:59.945Z,14.20
2023-04-29T07:53:56.742Z,13.71
2023-04-29T07:54:56.264Z,12.51
2023-04-29T07:55:53.056Z,14.13
2023-04-29T07:56:50.519Z,14.24
2023-04-29T07:57:47.209Z,14.29
2023-04-29T07:58:43.977Z,14.39
2023-04-29T07:59:40.880Z,14.86
2023-04-29T08:00:37.854Z,13.06
2023-04-29T08:01:34.560Z,15.28
2023-04-29T08:02:31.537Z,14.59
2023-04-29T08:03:28.592Z,14.77
2023-04-29T08:04:25.942Z,14.59
2023-04-29T08:05:24.548Z,14.41
2023-04-29T08:06:22.439Z,15.51
2023-04-29T08:07:19.296Z,14.81
2023-04-29T08:08:16.150Z,14.56
2023-04-29T08:09:13.088Z,13.37
2023-04-29T08:10:10.516Z,14.18
2023-04-29T08:11:07.493Z,15.00
2023-04-29T08:12:04.707Z,14.73
2023-04-29T08:13:01.553Z,14.08
2023-04-29T08:14:00.189Z,14.04
2023-04-29T08:14:57.012Z,12.09
2023-04-29T08:15:54.143Z,14.16
2023-04-29T08:16:51.073Z,13.65
2023-04-29T08:17:47.874Z,13.08
2023-04-29T08:18:44.885Z,13.24
2023-04-29T08:19:41.731Z,14.14
2023-04-29T08:20:38.462Z,13.34
2023-04-29T08:21:35.313Z,13.44
2023-04-29T08:22:32.234Z,14.34
2023-04-29T08:23:29.043Z,14.68
2023-04-29T08:24:25.776Z,15.09
2023-04-29T08:25:22.538Z,13.93
2023-04-29T08:26:19.451Z,14.05
2023-04-29T08:27:16.623Z,14.48
2023-04-29T08:28:13.408Z,14.62
2023-04-29T08:29:10.134Z,14.71
2023-04-29T08:30:07.571Z,15.58
2023-04-29T08:31:07.140Z,14.81
2023-04-29T08:32:03.947Z,15.19
2023-04-29T08:33:00.897Z,15.45
2023-04-29T08:33:58.821Z,15.44
2023-04-29T08:34:55.880Z,15.43
2023-04-29T08:35:59.289Z,15.28
2023-04-29T08:36:57.604Z,13.66
2023-04-29T08:37:54.493Z,14.96
2023-04-29T08:38:52.905Z,14.98
2023-04-29T08:39:49.809Z,15.02
2023-04-29T08:40:47.139Z,15.10
2023-04-29T08:41:51.309Z,14.96
2023-04-29T08:42:49.812Z,14.27
2023-04-29T08:43:46.918Z,15.25
2023-04-29T08:44:44.391Z,15.53
2023-04-29T08:45:43.427Z,15.53
2023-04-29T08:46:41.597Z,14.83
2023-04-29T08:47:39.709Z,15.84
2023-04-29T08:48:41.327Z,15.06
2023-04-29T08:49:41.681Z,16.23
2023-04-29T08:50:41.280Z,15.41
2023-04-29T08:51:38.176Z,15.14
2023-04-29T08:52:36.088Z,16.35
2023-04-29T08:53:33.104Z,16.01
2023-04-29T08:54:31.331Z,15.38
2023-04-29T08:55:28.374Z,15.94
2023-04-29T08:56:27.399Z,15.75
2023-04-29T08:57:28.222Z,16.13
2023-04-29T08:58:28.644Z,16.32
2023-04-29T08:59:26.272Z,15.57
2023-04-29T09:00:24.972Z,14.88
2023-04-29T09:01:24.253Z,15.54
2023-04-29T09:02:25.267Z,15.63
2023-04-29T09:03:42.971Z,16.71
2023-04-29T09:05:07.242Z,14.69
2023-04-29T09:06:06.420Z,16.34
2023-04-29T09:07:05.638Z,15.96
2023-04-29T09:08:04.869Z,15.70
2023-04-29T09:09:03.957Z,15.48
2023-04-29T09:10:04.472Z,14.87
2023-04-29T09:11:01.731Z,15.83
2023-04-29T09:11:59.053Z,16.34
2023-04-29T09:12:58.949Z,15.38
2023-04-29T09:14:02.698Z,16.40
2023-04-29T09:17:46.497Z,16.54
2023-04-29T09:18:50.385Z,16.84
2023-04-29T09:19:47.182Z,16.75
2023-04-29T09:20:43.941Z,16.13
2023-04-29T09:21:41.067Z,15.31
2023-04-29T09:22:52.276Z,14.39
2023-04-29T09:23:52.590Z,16.32
2023-04-29T09:24:49.352Z,16.48
2023-04-29T09:25:56.934Z,16.65
2023-04-29T09:26:54.032Z,16.21
2023-04-29T09:27:51.375Z,14.70
2023-04-29T09:29:13.914Z,16.60
2023-04-29T09:30:12.647Z,16.93
2023-04-29T09:31:09.657Z,16.85
2023-04-29T09:32:20.858Z,16.46
2023-04-29T09:33:17.654Z,16.79
2023-04-29T09:34:15.105Z,16.63
2023-04-29T09:35:28.360Z,16.27
2023-04-29T09:36:42.062Z,16.81
2023-04-29T09:37:38.825Z,16.99
2023-04-29T09:38:36.911Z,17.15
2023-04-29T09:39:39.932Z,17.15
2023-04-29T09:40:50.125Z,16.96
2023-04-29T09:41:53.737Z,16.80
2023-04-29T09:42:51.435Z,16.82
2023-04-29T09:44:04.630Z,17.04
2023-04-29T09:45:01.532Z,16.56
2023-04-29T09:45:58.549Z,17.16
2023-04-29T09:46:59.825Z,17.65
2023-04-29T09:48:06.287Z,17.95
2023-04-29T09:49:07.052Z,17.01
2023-04-29T09:50:16.650Z,15.88
2023-04-29T09:51:15.641Z,16.48
2023-04-29T09:52:16.501Z,17.32
2023-04-29T09:53:29.910Z,16.51
2023-04-29T09:54:36.262Z,17.90
2023-04-29T09:55:33.187Z,17.99
2023-04-29T09:56:52.539Z,15.23
2023-04-29T09:57:49.273Z,17.42
2023-04-29T09:58:46.079Z,17.31
2023-04-29T09:59:43.549Z,17.18
2023-04-29T10:00:40.507Z,17.48
2023-04-29T10:01:37.246Z,17.11
2023-04-29T10:02:34.616Z,14.85
2023-04-29T10:03:37.431Z,17.15
2023-04-29T10:04:40.061Z,17.05
2023-04-29T10:05:37.152Z,16.42
2023-04-29T10:06:34.410Z,16.81
2023-04-29T10:07:31.372Z,15.98
2023-04-29T10:08:29.865Z,17.39
2023-04-29T10:09:26.969Z,16.12
2023-04-29T10:10:24.754Z,17.52
2023-04-29T10:11:21.830Z,17.64
2023-04-29T10:12:20.436Z,17.02
2023-04-29T10:13:17.423Z,16.35
2023-04-29T10:14:26.187Z,17.00
2023-04-29T10:15:32.685Z,17.55
2023-04-29T10:16:34.550Z,16.32
2023-04-29T10:17:46.046Z,17.20
2023-04-29T10:18:49.656Z,16.73
2023-04-29T10:19:58.554Z,17.05
2023-04-29T10:21:00.304Z,16.36
2023-04-29T10:22:05.131Z,17.20
2023-04-29T10:23:04.051Z,17.53
2023-04-29T10:24:03.642Z,15.49
2023-04-29T10:25:02.953Z,17.09
2023-04-29T10:26:03.639Z,16.61
2023-04-29T10:27:00.888Z,17.11
2023-04-29T10:28:00.890Z,17.99
2023-04-29T10:29:00.185Z,17.11
2023-04-29T10:30:01.005Z,15.80
2023-04-29T10:31:03.434Z,17.69
2023-04-29T10:32:01.766Z,16.71
2023-04-29T10:33:02.310Z,15.44
2023-04-29T10:33:59.419Z,17.10
2023-04-29T10:34:58.571Z,17.72
2023-04-29T10:35:56.265Z,17.75
2023-04-29T10:36:53.400Z,17.54
2023-04-29T10:37:51.004Z,15.65
2023-04-29T10:38:53.991Z,17.83
2023-04-29T10:40:21.258Z,16.81
2023-04-29T10:41:25.598Z,17.30
2023-04-29T10:42:43.395Z,18.02
2023-04-29T10:43:40.349Z,18.07
2023-04-29T10:45:15.417Z,18.13
2023-04-29T10:46:27.055Z,15.89
2023-04-29T10:47:23.923Z,17.72
2023-04-29T10:48:24.193Z,18.16
2023-04-29T10:49:24.188Z,17.82
2023-04-29T10:50:22.061Z,17.78
2023-04-29T10:51:31.592Z,17.68
2023-04-29T10:52:28.289Z,17.99
2023-04-29T10:53:25.104Z,17.18
2023-04-29T10:54:25.985Z,17.53
2023-04-29T10:55:25.930Z,17.87
2023-04-29T10:56:22.940Z,17.59
2023-04-29T10:57:22.781Z,17.28
2023-04-29T10:58:38.883Z,18.12
2023-04-29T10:59:36.621Z,18.11
2023-04-29T11:00:37.942Z,17.90
2023-04-29T11:01:46.692Z,18.23
2023-04-29T11:02:43.589Z,17.38
2023-04-29T11:04:02.045Z,16.45
2023-04-29T11:05:12.688Z,17.59
2023-04-29T11:06:10.165Z,16.95
2023-04-29T11:07:06.927Z,17.49
2023-04-29T11:08:10.037Z,17.68
2023-04-29T11:09:21.252Z,16.04
2023-04-29T11:10:18.113Z,17.43
2023-04-29T11:11:15.722Z,17.41
2023-04-29T11:12:13.626Z,17.62
2023-04-29T11:13:26.047Z,17.13
2023-04-29T11:14:49.681Z,17.68
2023-04-29T11:15:46.686Z,16.41
2023-04-29T11:16:53.526Z,17.59
2023-04-29T11:17:50.691Z,16.79
2023-04-29T11:19:08.500Z,16.80
2023-04-29T11:20:14.339Z,16.35
2023-04-29T11:21:11.316Z,17.45
2023-04-29T11:22:12.496Z,17.43
2023-04-29T11:23:09.260Z,16.42
2023-04-29T11:24:07.198Z,17.54
2023-04-29T11:25:07.398Z,17.59
2023-04-29T11:26:04.783Z,17.07
2023-04-29T11:27:06.234Z,16.40
2023-04-29T11:28:04.166Z,17.35
2023-04-29T11:29:01.120Z,17.29
2023-04-29T11:29:59.231Z,16.46
2023-04-29T11:30:57.098Z,17.63
2023-04-29T11:31:59.849Z,17.59
2023-04-29T11:32:59.325Z,16.96
2023-04-29T11:33:56.198Z,17.28
2023-04-29T11:34:54.251Z,17.52
2023-04-29T11:35:52.128Z,17.06
2023-04-29T11:36:49.117Z,17.34
2023-04-29T11:37:47.483Z,17.57
2023-04-29T11:38:44.484Z,17.41
2023-04-29T11:39:41.497Z,16.78
2023-04-29T11:40:43.059Z,17.13
2023-04-29T11:41:39.999Z,16.10
2023-04-29T11:42:48.357Z,16.69
2023-04-29T11:43:54.761Z,17.54
2023-04-29T11:44:53.472Z,16.90
2023-04-29T11:45:52.683Z,17.20
2023-04-29T11:46:49.911Z,15.89
2023-04-29T11:47:48.379Z,16.10
2023-04-29T11:48:49.777Z,15.45
2023-04-29T11:49:48.973Z,16.95
2023-04-29T11:50:51.408Z,17.24
2023-04-29T11:51:48.406Z,16.11
2023-04-29T11:52:47.798Z,17.27
2023-04-29T11:53:47.455Z,16.89
2023-04-29T11:54:44.393Z,16.81
2023-04-29T11:55:45.494Z,17.39
2023-04-29T11:56:42.351Z,16.67
2023-04-29T11:57:40.595Z,16.70
2023-04-29T11:58:38.596Z,17.76
2023-04-29T11:59:35.429Z,17.36
2023-04-29T12:00:32.343Z,16.72
2023-04-29T12:01:30.508Z,17.03
2023-04-29T12:02:34.271Z,17.37
2023-04-29T12:03:33.247Z,17.32
2023-04-29T12:04:30.431Z,17.62
2023-04-29T12:05:27.834Z,16.75
2023-04-29T12:06:28.376Z,16.77
2023-04-29T12:07:25.156Z,16.85
2023-04-29T12:08:26.129Z,15.93
2023-04-29T12:09:23.572Z,16.71
2023-04-29T12:10:21.500Z,17.62
2023-04-29T12:11:18.357Z,17.81
2023-04-29T12:12:16.086Z,17.45
2023-04-29T12:13:12.975Z,17.84
2023-04-29T12:14:09.984Z,18.01
2023-04-29T12:15:10.275Z,17.12
2023-04-29T12:16:19.980Z,16.93
2023-04-29T12:17:20.095Z,16.17
2023-04-29T12:18:18.757Z,17.83
2023-04-29T12:19:15.971Z,17.48
2023-04-29T12:20:13.737Z,18.01
2023-04-29T12:21:13.505Z,17.93
2023-04-29T12:22:10.411Z,16.76
2023-04-29T12:23:18.996Z,17.27
2023-04-29T12:24:17.506Z,17.91
2023-04-29T12:25:16.441Z,17.83
2023-04-29T12:26:13.862Z,17.11
2023-04-29T12:27:11.295Z,18.22
2023-04-29T12:28:14.940Z,17.75
2023-04-29T12:29:11.676Z,17.85
2023-04-29T12:30:10.062Z,17.79
2023-04-29T12:31:10.111Z,17.73
2023-04-29T12:32:12.416Z,17.30
2023-04-29T12:33:09.932Z,17.66
2023-04-29T12:34:10.138Z,16.84
2023-04-29T12:35:16.887Z,17.69
2023-04-29T12:36:22.986Z,17.65
2023-04-29T12:37:20.272Z,17.44
2023-04-29T12:38:21.879Z,17.22
2023-04-29T12:39:18.654Z,17.37
2023-04-29T12:40:16.901Z,16.18
2023-04-29T12:41:16.018Z,17.74
2023-04-29T12:42:17.201Z,17.31
2023-04-29T12:43:14.019Z,15.42
2023-04-29T12:44:11.371Z,16.24
2023-04-29T12:45:08.467Z,17.13
2023-04-29T12:46:09.448Z,17.59
2023-04-29T12:47:13.666Z,17.50
2023-04-29T12:48:25.068Z,17.65
2023-04-29T12:49:24.771Z,17.44
2023-04-29T12:50:29.847Z,16.58
2023-04-29T12:51:26.820Z,17.63
2023-04-29T12:52:23.612Z,17.70
2023-04-29T12:53:24.503Z,17.66
2023-04-29T12:54:21.565Z,17.57
2023-04-29T12:55:18.381Z,16.85
2023-04-29T12:56:15.310Z,16.93